Atlantic Elm — 9HA3054 — position and weather

sailwx.info

Track history (hours):
 
Tides and Currents Weather Stations Pressure Air Temp Water Temp Dewpoint Dewpoint Depression Visibility Wind Speed Wind Dir Waves Ship Positions

Atlantic Elm

Last reported at 2015-Feb-28 13:33 UTC. Time now 2015-Mar-02 12:47 UTC.
Position N 48°51' W 005°49'.

Length 190 m; draft 11 m.

Type: Cargo ship. MMSI: 229081000.

Date/timePositionNaut miles runAvg speedWind from/ knotsBaromVisibWave heightAir tempDewpointWater temp
2015-Feb-28 13:33N 48°51' W 005°49'2010.0
2015-Feb-28 11:33N 49°04' W 005°25'1010.2
2015-Feb-28 10:33N 49°10' W 005°13'16710.3
2015-Feb-27 18:16N 50°17' W 001°17'1011.3
2015-Feb-27 17:23N 50°20' W 001°01'910.8
2015-Feb-27 16:33N 50°23' W 000°48'1210.6
2015-Feb-27 15:24N 50°26' W 000°29'910.8
2015-Feb-27 14:31N 50°28' W 000°15'1111.4
2015-Feb-27 13:33N 50°31' E 000°02'1212.3
2015-Feb-27 12:33N 50°35' E 000°20'1312.9
2015-Feb-27 11:33N 50°40' E 000°39'1313.2
2015-Feb-27 10:33N 50°47' E 000°56'1312.8
2015-Feb-27 09:33N 50°56' E 001°12'1212.3
2015-Feb-27 08:34N 51°03' E 001°26'1111.3
2015-Feb-27 07:33N 51°11' E 001°40'1111.2
2015-Feb-27 06:33N 51°20' E 001°51'10 9.9
2015-Feb-27 05:33N 51°25' E 002°05'1110.8
2015-Feb-27 04:30N 51°21' E 002°22'1111.5
2015-Feb-27 03:33N 51°22' E 002°40'1111.0
2015-Feb-27 02:33N 51°23' E 002°57'1212.2
2015-Feb-27 01:33N 51°25' E 003°17'1111.4
2015-Feb-27 00:33N 51°26' E 003°35'9 9.3
2015-Feb-26 23:34N 51°21' E 003°48'2 1.8
2015-Feb-26 22:33N 51°19' E 003°49'5 4.5
2015-Feb-26 21:34N 51°15' E 003°49'6 5.5
2015-Feb-26 20:33N 51°10' E 003°47'5 4.5
2015-Feb-26 19:33N 51°05' E 003°44'0 0.1
2015-Feb-26 18:31N 51°05' E 003°44'0 0.0
2015-Feb-26 17:31N 51°05' E 003°44'0 0.0
2015-Feb-26 16:31N 51°05' E 003°44'0 0.0
2015-Feb-26 15:31N 51°05' E 003°44'0 0.0
2015-Feb-26 14:33N 51°05' E 003°44'0 0.0
2015-Feb-26 13:33N 51°05' E 003°44'0 0.0
2015-Feb-26 12:33N 51°05' E 003°44'0 0.0
2015-Feb-26 11:33N 51°05' E 003°44'0 0.0
2015-Feb-26 10:33N 51°05' E 003°44'0 0.0
2015-Feb-26 09:33N 51°05' E 003°44'0 0.0
2015-Feb-26 08:33N 51°05' E 003°44'0 0.0
2015-Feb-26 07:33N 51°05' E 003°44'0 0.0
2015-Feb-26 06:33N 51°05' E 003°44'0 0.0
2015-Feb-26 05:33N 51°05' E 003°44'0 0.0
2015-Feb-26 04:33N 51°05' E 003°44'0 0.0
2015-Feb-26 03:30N 51°05' E 003°44'0 0.0
2015-Feb-26 02:33N 51°05' E 003°44'0 0.0
2015-Feb-26 01:33N 51°05' E 003°44'0 0.0
2015-Feb-26 00:33N 51°05' E 003°44'0 0.0
2015-Feb-25 23:30N 51°05' E 003°44'0 0.0
2015-Feb-25 22:27N 51°05' E 003°44'0 0.0
2015-Feb-25 21:22N 51°05' E 003°44'0 0.0
2015-Feb-25 20:28N 51°05' E 003°44'0 0.0
2015-Feb-25 19:28N 51°05' E 003°44'0 0.0
2015-Feb-25 18:31N 51°05' E 003°44'0 0.0
2015-Feb-25 17:31N 51°05' E 003°44'0 0.0
2015-Feb-25 16:31N 51°05' E 003°44'0 0.0
2015-Feb-25 15:34N 51°05' E 003°44'0 0.0
2015-Feb-25 14:32N 51°05' E 003°44'0 0.0
2015-Feb-25 13:29N 51°05' E 003°44'0 0.0
2015-Feb-25 12:32N 51°05' E 003°44'0 0.0
2015-Feb-25 11:29N 51°05' E 003°44'0 0.0
2015-Feb-25 10:32N 51°05' E 003°44'0 0.0
2015-Feb-25 09:32N 51°05' E 003°44'0 0.0
2015-Feb-25 08:32N 51°05' E 003°44'0 0.0
2015-Feb-25 07:32N 51°05' E 003°44'0 0.0
2015-Feb-25 06:32N 51°05' E 003°44'0 0.0
2015-Feb-25 05:32N 51°05' E 003°44'0 0.0
2015-Feb-25 04:30N 51°05' E 003°44'0 0.0
2015-Feb-25 03:33N 51°05' E 003°44'0 0.0
2015-Feb-25 02:33N 51°05' E 003°44'0 0.0
2015-Feb-25 01:33N 51°05' E 003°44'0 0.0
2015-Feb-25 00:33N 51°05' E 003°44'0 0.0
2015-Feb-24 23:24N 51°05' E 003°44'0 0.0
2015-Feb-24 22:33N 51°05' E 003°44'0 0.0
2015-Feb-24 21:33N 51°05' E 003°44'0 0.0
2015-Feb-24 20:33N 51°05' E 003°44'0 0.0
2015-Feb-24 19:33N 51°05' E 003°44'0 0.0
2015-Feb-24 18:33N 51°05' E 003°44'0 0.0
2015-Feb-24 17:33N 51°05' E 003°44'0 0.0
2015-Feb-24 16:34N 51°05' E 003°44'0 0.0
2015-Feb-24 15:33N 51°05' E 003°44'0 0.0
2015-Feb-24 14:33N 51°05' E 003°44'0 0.0
2015-Feb-24 13:32N 51°05' E 003°44'0 0.0
2015-Feb-24 12:32N 51°05' E 003°44'0 0.0
2015-Feb-24 11:32N 51°05' E 003°44'0 0.0
2015-Feb-24 10:32N 51°05' E 003°44'0 0.0
2015-Feb-24 09:32N 51°05' E 003°44'0 0.0
2015-Feb-24 08:32N 51°05' E 003°44'0 0.0
2015-Feb-24 07:32N 51°05' E 003°44'0 0.0
2015-Feb-24 06:32N 51°05' E 003°44'0 0.0
2015-Feb-24 05:32N 51°05' E 003°44'0 0.0
2015-Feb-24 04:32N 51°05' E 003°44'0 0.0
2015-Feb-24 03:32N 51°05' E 003°44'0 0.0
2015-Feb-24 02:29N 51°05' E 003°44'0 0.0
2015-Feb-24 01:29N 51°05' E 003°44'0 0.0
2015-Feb-24 00:29N 51°05' E 003°44'0 0.0
2015-Feb-23 23:29N 51°05' E 003°44'0 0.0
2015-Feb-23 22:32N 51°05' E 003°44'0 0.0
2015-Feb-23 21:32N 51°05' E 003°44'0 0.0
2015-Feb-23 20:32N 51°05' E 003°44'0 0.0
2015-Feb-23 19:32N 51°05' E 003°44'0 0.0
2015-Feb-23 18:32N 51°05' E 003°44'0 0.0
2015-Feb-23 17:32N 51°05' E 003°44'0 0.0
2015-Feb-23 16:32N 51°05' E 003°44'0 0.0
2015-Feb-23 15:32N 51°05' E 003°44'0 0.0
2015-Feb-23 14:32N 51°05' E 003°44'0 0.1
2015-Feb-23 13:32N 51°06' E 003°44'0 0.0
2015-Feb-23 12:32N 51°06' E 003°44'0 0.0
2015-Feb-23 11:31N 51°06' E 003°44'0 0.0
2015-Feb-23 10:31N 51°06' E 003°44'0 0.0
2015-Feb-23 09:31N 51°06' E 003°44'0 0.0
2015-Feb-23 08:31N 51°06' E 003°44'0 0.0
2015-Feb-23 07:31N 51°06' E 003°44'0 0.0
2015-Feb-23 06:31N 51°06' E 003°44'0 0.0
2015-Feb-23 05:31N 51°06' E 003°44'0 0.0
2015-Feb-23 04:31N 51°06' E 003°44'0 0.0
2015-Feb-23 03:31N 51°06' E 003°44'0 0.0
2015-Feb-23 02:31N 51°06' E 003°44'0 0.0
2015-Feb-23 01:31N 51°06' E 003°44'0 0.0
2015-Feb-23 00:25N 51°06' E 003°44'0 0.0
2015-Feb-22 23:31N 51°06' E 003°44'0 0.0
2015-Feb-22 22:31N 51°06' E 003°44'0 0.0
2015-Feb-22 21:31N 51°06' E 003°44'0 0.0
2015-Feb-22 20:31N 51°06' E 003°44'0 0.0
2015-Feb-22 19:31N 51°06' E 003°44'0 0.0
2015-Feb-22 18:31N 51°06' E 003°44'0 0.0
2015-Feb-22 17:31N 51°06' E 003°44'0 0.0
2015-Feb-22 16:31N 51°06' E 003°44'0 0.0
2015-Feb-22 15:31N 51°06' E 003°44'0 0.0
2015-Feb-22 14:25N 51°06' E 003°44'0 0.0
2015-Feb-22 13:31N 51°06' E 003°44'0 0.0
2015-Feb-22 12:31N 51°06' E 003°44'0 0.0
2015-Feb-22 11:31N 51°06' E 003°44'0 0.0
2015-Feb-22 10:31N 51°06' E 003°44'1 1.2
2015-Feb-22 09:34N 51°07' E 003°45'6 6.4
2015-Feb-22 08:34N 51°13' E 003°48'6 6.1
2015-Feb-22 07:34N 51°19' E 003°50'3 2.7
2015-Feb-22 06:33N 51°21' E 003°48'8 8.1
2015-Feb-22 05:33N 51°26' E 003°38'9 8.9
2015-Feb-22 04:33N 51°31' E 003°26'1212.1
2015-Feb-22 03:33N 51°41' E 003°16'6 6.1
2015-Feb-22 02:30N 51°47' E 003°18'1 1.0
2015-Feb-22 01:31N 51°47' E 003°20'0 0.1
2015-Feb-22 00:28N 51°47' E 003°20'0 0.0
2015-Feb-21 22:25N 51°47' E 003°20'0 0.0
2015-Feb-21 21:31N 51°47' E 003°20'0 0.0
2015-Feb-21 20:25N 51°47' E 003°20'0 0.1
2015-Feb-21 19:22N 51°48' E 003°20'0 0.0
2015-Feb-21 18:13N 51°47' E 003°20'0 0.1
2015-Feb-21 17:07N 51°48' E 003°20'0 0.0
2015-Feb-21 14:22N 51°48' E 003°20'0 0.1
2015-Feb-21 12:16N 51°47' E 003°20'0 0.0
2015-Feb-21 11:22N 51°47' E 003°20'0 0.0
2015-Feb-21 10:31N 51°47' E 003°20'0 0.0
2015-Feb-21 09:31N 51°47' E 003°20'0 0.1
2015-Feb-21 08:28N 51°47' E 003°20'0 0.1
2015-Feb-21 07:25N 51°48' E 003°20'0 0.1
2015-Feb-21 06:10N 51°48' E 003°20'0 0.0
2015-Feb-21 05:25N 51°48' E 003°20'0 0.0
2015-Feb-21 03:31N 51°48' E 003°20'0 0.1
2015-Feb-21 02:31N 51°48' E 003°20'0 0.1
2015-Feb-21 01:28N 51°47' E 003°20'0 0.1
2015-Feb-21 00:16N 51°47' E 003°20'0 0.0
2015-Feb-20 23:07N 51°47' E 003°20'0 0.1
2015-Feb-20 22:31N 51°47' E 003°20'0 0.0
2015-Feb-20 21:28N 51°47' E 003°20'0 0.0
2015-Feb-20 20:31N 51°47' E 003°20'0 0.0
2015-Feb-20 19:28N 51°47' E 003°20'0 0.1
2015-Feb-20 18:31N 51°48' E 003°20'0 0.2
2015-Feb-20 17:28N 51°48' E 003°20'0 0.0
2015-Feb-20 16:04N 51°48' E 003°20'0 0.0
2015-Feb-20 15:28N 51°48' E 003°20'0 0.0
2015-Feb-20 13:04N 51°48' E 003°20'0 0.0
2015-Feb-20 12:22N 51°48' E 003°20'0 0.1
2015-Feb-20 11:07N 51°48' E 003°20'0 0.1
2015-Feb-20 10:07N 51°48' E 003°20'0 0.0
2015-Feb-20 09:13N 51°47' E 003°20'0 0.2
2015-Feb-20 08:10N 51°48' E 003°20'0 0.1
2015-Feb-20 07:22N 51°48' E 003°20'0 0.0
2015-Feb-20 06:31N 51°48' E 003°20'0 0.0
2015-Feb-20 05:31N 51°48' E 003°20'0 0.0
2015-Feb-20 04:16N 51°48' E 003°20'0 0.0
2015-Feb-20 03:28N 51°48' E 003°20'0 0.0
2015-Feb-20 02:04N 51°48' E 003°20'0 0.0
2015-Feb-20 01:28N 51°48' E 003°20'0 0.0
2015-Feb-20 00:28N 51°48' E 003°20'0 0.0
2015-Feb-19 23:31N 51°48' E 003°20'0 0.0
2015-Feb-19 22:31N 51°48' E 003°20'0 0.1
2015-Feb-19 21:31N 51°48' E 003°20'0 0.0
2015-Feb-19 20:25N 51°48' E 003°20'0 0.1
2015-Feb-19 19:25N 51°48' E 003°20'0 0.0
2015-Feb-19 17:19N 51°48' E 003°20'0 0.1
2015-Feb-19 16:31N 51°48' E 003°20'0 0.0
2015-Feb-19 13:25N 51°48' E 003°20'0 0.0
2015-Feb-19 12:31N 51°48' E 003°20'0 0.0
2015-Feb-19 11:13N 51°48' E 003°20'0 0.0
2015-Feb-19 10:31N 51°48' E 003°20'0 0.1
2015-Feb-19 09:31N 51°48' E 003°20'0 0.0
2015-Feb-19 08:31N 51°48' E 003°20'0 0.1
2015-Feb-19 07:29N 51°48' E 003°20'0 0.0
2015-Feb-19 06:22N 51°48' E 003°20'0 0.0
2015-Feb-19 05:31N 51°48' E 003°20'0 0.0
2015-Feb-19 04:31N 51°48' E 003°20'0 0.0
2015-Feb-19 03:31N 51°48' E 003°20'0 0.0
2015-Feb-19 02:22N 51°48' E 003°20'0 0.0
2015-Feb-19 01:16N 51°48' E 003°20'0 0.0
2015-Feb-19 00:31N 51°48' E 003°20'0 0.1
2015-Feb-18 23:10N 51°48' E 003°20'2 2.4
2015-Feb-18 22:33N 51°47' E 003°17'7 6.8
2015-Feb-18 21:33N 51°47' E 003°06'1111.5
2015-Feb-18 20:33N 51°48' E 002°48'1312.5
2015-Feb-18 19:32N 51°59' E 002°37'1212.6
2015-Feb-18 18:33N 52°11' E 002°39'1211.9
2015-Feb-18 17:33N 52°22' E 002°47'1111.0
2015-Feb-18 16:31N 52°32' E 002°56'1010.2
2015-Feb-18 15:32N 52°41' E 003°03'  
Track history (hours):
 
Tides and Currents Weather Stations Pressure Air Temp Water Temp Dewpoint Dewpoint Depression Visibility Wind Speed Wind Dir Waves Ship Positions

Atlantic Elm

Last reported at 2015-Feb-28 13:33 UTC. Time now 2015-Mar-02 12:47 UTC.
Position N 48°51' W 005°49'.

Length 190 m; draft 11 m.

Type: Cargo ship. MMSI: 229081000.

Date/timePositionNaut miles runAvg speedWind from/ knotsBaromVisibWave heightAir tempDewpointWater temp
2015-Feb-28 13:33N 48°51' W 005°49'2010.0
2015-Feb-28 11:33N 49°04' W 005°25'1010.2
2015-Feb-28 10:33N 49°10' W 005°13'16710.3
2015-Feb-27 18:16N 50°17' W 001°17'1011.3
2015-Feb-27 17:23N 50°20' W 001°01'910.8
2015-Feb-27 16:33N 50°23' W 000°48'1210.6
2015-Feb-27 15:24N 50°26' W 000°29'910.8
2015-Feb-27 14:31N 50°28' W 000°15'1111.4
2015-Feb-27 13:33N 50°31' E 000°02'1212.3
2015-Feb-27 12:33N 50°35' E 000°20'1312.9
2015-Feb-27 11:33N 50°40' E 000°39'1313.2
2015-Feb-27 10:33N 50°47' E 000°56'1312.8
2015-Feb-27 09:33N 50°56' E 001°12'1212.3
2015-Feb-27 08:34N 51°03' E 001°26'1111.3
2015-Feb-27 07:33N 51°11' E 001°40'1111.2
2015-Feb-27 06:33N 51°20' E 001°51'10 9.9
2015-Feb-27 05:33N 51°25' E 002°05'1110.8
2015-Feb-27 04:30N 51°21' E 002°22'1111.5
2015-Feb-27 03:33N 51°22' E 002°40'1111.0
2015-Feb-27 02:33N 51°23' E 002°57'1212.2
2015-Feb-27 01:33N 51°25' E 003°17'1111.4
2015-Feb-27 00:33N 51°26' E 003°35'9 9.3
2015-Feb-26 23:34N 51°21' E 003°48'2 1.8
2015-Feb-26 22:33N 51°19' E 003°49'5 4.5
2015-Feb-26 21:34N 51°15' E 003°49'6 5.5
2015-Feb-26 20:33N 51°10' E 003°47'5 4.5
2015-Feb-26 19:33N 51°05' E 003°44'0 0.1
2015-Feb-26 18:31N 51°05' E 003°44'0 0.0
2015-Feb-26 17:31N 51°05' E 003°44'0 0.0
2015-Feb-26 16:31N 51°05' E 003°44'0 0.0
2015-Feb-26 15:31N 51°05' E 003°44'0 0.0
2015-Feb-26 14:33N 51°05' E 003°44'0 0.0
2015-Feb-26 13:33N 51°05' E 003°44'0 0.0
2015-Feb-26 12:33N 51°05' E 003°44'0 0.0
2015-Feb-26 11:33N 51°05' E 003°44'0 0.0
2015-Feb-26 10:33N 51°05' E 003°44'0 0.0
2015-Feb-26 09:33N 51°05' E 003°44'0 0.0
2015-Feb-26 08:33N 51°05' E 003°44'0 0.0
2015-Feb-26 07:33N 51°05' E 003°44'0 0.0
2015-Feb-26 06:33N 51°05' E 003°44'0 0.0
2015-Feb-26 05:33N 51°05' E 003°44'0 0.0
2015-Feb-26 04:33N 51°05' E 003°44'0 0.0
2015-Feb-26 03:30N 51°05' E 003°44'0 0.0
2015-Feb-26 02:33N 51°05' E 003°44'0 0.0
2015-Feb-26 01:33N 51°05' E 003°44'0 0.0
2015-Feb-26 00:33N 51°05' E 003°44'0 0.0
2015-Feb-25 23:30N 51°05' E 003°44'0 0.0
2015-Feb-25 22:27N 51°05' E 003°44'0 0.0
2015-Feb-25 21:22N 51°05' E 003°44'0 0.0
2015-Feb-25 20:28N 51°05' E 003°44'0 0.0
2015-Feb-25 19:28N 51°05' E 003°44'0 0.0
2015-Feb-25 18:31N 51°05' E 003°44'0 0.0
2015-Feb-25 17:31N 51°05' E 003°44'0 0.0
2015-Feb-25 16:31N 51°05' E 003°44'0 0.0
2015-Feb-25 15:34N 51°05' E 003°44'0 0.0
2015-Feb-25 14:32N 51°05' E 003°44'0 0.0
2015-Feb-25 13:29N 51°05' E 003°44'0 0.0
2015-Feb-25 12:32N 51°05' E 003°44'0 0.0
2015-Feb-25 11:29N 51°05' E 003°44'0 0.0
2015-Feb-25 10:32N 51°05' E 003°44'0 0.0
2015-Feb-25 09:32N 51°05' E 003°44'0 0.0
2015-Feb-25 08:32N 51°05' E 003°44'0 0.0
2015-Feb-25 07:32N 51°05' E 003°44'0 0.0
2015-Feb-25 06:32N 51°05' E 003°44'0 0.0
2015-Feb-25 05:32N 51°05' E 003°44'0 0.0
2015-Feb-25 04:30N 51°05' E 003°44'0 0.0
2015-Feb-25 03:33N 51°05' E 003°44'0 0.0
2015-Feb-25 02:33N 51°05' E 003°44'0 0.0
2015-Feb-25 01:33N 51°05' E 003°44'0 0.0
2015-Feb-25 00:33N 51°05' E 003°44'0 0.0
2015-Feb-24 23:24N 51°05' E 003°44'0 0.0
2015-Feb-24 22:33N 51°05' E 003°44'0 0.0
2015-Feb-24 21:33N 51°05' E 003°44'0 0.0
2015-Feb-24 20:33N 51°05' E 003°44'0 0.0
2015-Feb-24 19:33N 51°05' E 003°44'0 0.0
2015-Feb-24 18:33N 51°05' E 003°44'0 0.0
2015-Feb-24 17:33N 51°05' E 003°44'0 0.0
2015-Feb-24 16:34N 51°05' E 003°44'0 0.0
2015-Feb-24 15:33N 51°05' E 003°44'0 0.0
2015-Feb-24 14:33N 51°05' E 003°44'0 0.0
2015-Feb-24 13:32N 51°05' E 003°44'0 0.0
2015-Feb-24 12:32N 51°05' E 003°44'0 0.0
2015-Feb-24 11:32N 51°05' E 003°44'0 0.0
2015-Feb-24 10:32N 51°05' E 003°44'0 0.0
2015-Feb-24 09:32N 51°05' E 003°44'0 0.0
2015-Feb-24 08:32N 51°05' E 003°44'0 0.0
2015-Feb-24 07:32N 51°05' E 003°44'0 0.0
2015-Feb-24 06:32N 51°05' E 003°44'0 0.0
2015-Feb-24 05:32N 51°05' E 003°44'0 0.0
2015-Feb-24 04:32N 51°05' E 003°44'0 0.0
2015-Feb-24 03:32N 51°05' E 003°44'0 0.0
2015-Feb-24 02:29N 51°05' E 003°44'0 0.0
2015-Feb-24 01:29N 51°05' E 003°44'0 0.0
2015-Feb-24 00:29N 51°05' E 003°44'0 0.0
2015-Feb-23 23:29N 51°05' E 003°44'0 0.0
2015-Feb-23 22:32N 51°05' E 003°44'0 0.0
2015-Feb-23 21:32N 51°05' E 003°44'0 0.0
2015-Feb-23 20:32N 51°05' E 003°44'0 0.0
2015-Feb-23 19:32N 51°05' E 003°44'0 0.0
2015-Feb-23 18:32N 51°05' E 003°44'0 0.0
2015-Feb-23 17:32N 51°05' E 003°44'0 0.0
2015-Feb-23 16:32N 51°05' E 003°44'0 0.0
2015-Feb-23 15:32N 51°05' E 003°44'0 0.0
2015-Feb-23 14:32N 51°05' E 003°44'0 0.1
2015-Feb-23 13:32N 51°06' E 003°44'0 0.0
2015-Feb-23 12:32N 51°06' E 003°44'0 0.0
2015-Feb-23 11:31N 51°06' E 003°44'0 0.0
2015-Feb-23 10:31N 51°06' E 003°44'0 0.0
2015-Feb-23 09:31N 51°06' E 003°44'0 0.0
2015-Feb-23 08:31N 51°06' E 003°44'0 0.0
2015-Feb-23 07:31N 51°06' E 003°44'0 0.0
2015-Feb-23 06:31N 51°06' E 003°44'0 0.0
2015-Feb-23 05:31N 51°06' E 003°44'0 0.0
2015-Feb-23 04:31N 51°06' E 003°44'0 0.0
2015-Feb-23 03:31N 51°06' E 003°44'0 0.0
2015-Feb-23 02:31N 51°06' E 003°44'0 0.0
2015-Feb-23 01:31N 51°06' E 003°44'0 0.0
2015-Feb-23 00:25N 51°06' E 003°44'0 0.0
2015-Feb-22 23:31N 51°06' E 003°44'0 0.0
2015-Feb-22 22:31N 51°06' E 003°44'0 0.0
2015-Feb-22 21:31N 51°06' E 003°44'0 0.0
2015-Feb-22 20:31N 51°06' E 003°44'0 0.0
2015-Feb-22 19:31N 51°06' E 003°44'0 0.0
2015-Feb-22 18:31N 51°06' E 003°44'0 0.0
2015-Feb-22 17:31N 51°06' E 003°44'0 0.0
2015-Feb-22 16:31N 51°06' E 003°44'0 0.0
2015-Feb-22 15:31N 51°06' E 003°44'0 0.0
2015-Feb-22 14:25N 51°06' E 003°44'0 0.0
2015-Feb-22 13:31N 51°06' E 003°44'0 0.0
2015-Feb-22 12:31N 51°06' E 003°44'0 0.0
2015-Feb-22 11:31N 51°06' E 003°44'0 0.0
2015-Feb-22 10:31N 51°06' E 003°44'1 1.2
2015-Feb-22 09:34N 51°07' E 003°45'6 6.4
2015-Feb-22 08:34N 51°13' E 003°48'6 6.1
2015-Feb-22 07:34N 51°19' E 003°50'3 2.7
2015-Feb-22 06:33N 51°21' E 003°48'8 8.1
2015-Feb-22 05:33N 51°26' E 003°38'9 8.9
2015-Feb-22 04:33N 51°31' E 003°26'1212.1
2015-Feb-22 03:33N 51°41' E 003°16'6 6.1
2015-Feb-22 02:30N 51°47' E 003°18'1 1.0
2015-Feb-22 01:31N 51°47' E 003°20'0 0.1
2015-Feb-22 00:28N 51°47' E 003°20'0 0.0
2015-Feb-21 22:25N 51°47' E 003°20'0 0.0
2015-Feb-21 21:31N 51°47' E 003°20'0 0.0
2015-Feb-21 20:25N 51°47' E 003°20'0 0.1
2015-Feb-21 19:22N 51°48' E 003°20'0 0.0
2015-Feb-21 18:13N 51°47' E 003°20'0 0.1
2015-Feb-21 17:07N 51°48' E 003°20'0 0.0
2015-Feb-21 14:22N 51°48' E 003°20'0 0.1
2015-Feb-21 12:16N 51°47' E 003°20'0 0.0
2015-Feb-21 11:22N 51°47' E 003°20'0 0.0
2015-Feb-21 10:31N 51°47' E 003°20'0 0.0
2015-Feb-21 09:31N 51°47' E 003°20'0 0.1
2015-Feb-21 08:28N 51°47' E 003°20'0 0.1
2015-Feb-21 07:25N 51°48' E 003°20'0 0.1
2015-Feb-21 06:10N 51°48' E 003°20'0 0.0
2015-Feb-21 05:25N 51°48' E 003°20'0 0.0
2015-Feb-21 03:31N 51°48' E 003°20'0 0.1
2015-Feb-21 02:31N 51°48' E 003°20'0 0.1
2015-Feb-21 01:28N 51°47' E 003°20'0 0.1
2015-Feb-21 00:16N 51°47' E 003°20'0 0.0
2015-Feb-20 23:07N 51°47' E 003°20'0 0.1
2015-Feb-20 22:31N 51°47' E 003°20'0 0.0
2015-Feb-20 21:28N 51°47' E 003°20'0 0.0
2015-Feb-20 20:31N 51°47' E 003°20'0 0.0
2015-Feb-20 19:28N 51°47' E 003°20'0 0.1
2015-Feb-20 18:31N 51°48' E 003°20'0 0.2
2015-Feb-20 17:28N 51°48' E 003°20'0 0.0
2015-Feb-20 16:04N 51°48' E 003°20'0 0.0
2015-Feb-20 15:28N 51°48' E 003°20'0 0.0
2015-Feb-20 13:04N 51°48' E 003°20'0 0.0
2015-Feb-20 12:22N 51°48' E 003°20'0 0.1
2015-Feb-20 11:07N 51°48' E 003°20'0 0.1
2015-Feb-20 10:07N 51°48' E 003°20'0 0.0
2015-Feb-20 09:13N 51°47' E 003°20'0 0.2
2015-Feb-20 08:10N 51°48' E 003°20'0 0.1
2015-Feb-20 07:22N 51°48' E 003°20'0 0.0
2015-Feb-20 06:31N 51°48' E 003°20'0 0.0
2015-Feb-20 05:31N 51°48' E 003°20'0 0.0
2015-Feb-20 04:16N 51°48' E 003°20'0 0.0
2015-Feb-20 03:28N 51°48' E 003°20'0 0.0
2015-Feb-20 02:04N 51°48' E 003°20'0 0.0
2015-Feb-20 01:28N 51°48' E 003°20'0 0.0
2015-Feb-20 00:28N 51°48' E 003°20'0 0.0
2015-Feb-19 23:31N 51°48' E 003°20'0 0.0
2015-Feb-19 22:31N 51°48' E 003°20'0 0.1
2015-Feb-19 21:31N 51°48' E 003°20'0 0.0
2015-Feb-19 20:25N 51°48' E 003°20'0 0.1
2015-Feb-19 19:25N 51°48' E 003°20'0 0.0
2015-Feb-19 17:19N 51°48' E 003°20'0 0.1
2015-Feb-19 16:31N 51°48' E 003°20'0 0.0
2015-Feb-19 13:25N 51°48' E 003°20'0 0.0
2015-Feb-19 12:31N 51°48' E 003°20'0 0.0
2015-Feb-19 11:13N 51°48' E 003°20'0 0.0
2015-Feb-19 10:31N 51°48' E 003°20'0 0.1
2015-Feb-19 09:31N 51°48' E 003°20'0 0.0
2015-Feb-19 08:31N 51°48' E 003°20'0 0.1
2015-Feb-19 07:29N 51°48' E 003°20'0 0.0
2015-Feb-19 06:22N 51°48' E 003°20'0 0.0
2015-Feb-19 05:31N 51°48' E 003°20'0 0.0
2015-Feb-19 04:31N 51°48' E 003°20'0 0.0
2015-Feb-19 03:31N 51°48' E 003°20'0 0.0
2015-Feb-19 02:22N 51°48' E 003°20'0 0.0
2015-Feb-19 01:16N 51°48' E 003°20'0 0.0
2015-Feb-19 00:31N 51°48' E 003°20'0 0.1
2015-Feb-18 23:10N 51°48' E 003°20'2 2.4
2015-Feb-18 22:33N 51°47' E 003°17'7 6.8
2015-Feb-18 21:33N 51°47' E 003°06'1111.5
2015-Feb-18 20:33N 51°48' E 002°48'1312.5
2015-Feb-18 19:32N 51°59' E 002°37'1212.6
2015-Feb-18 18:33N 52°11' E 002°39'1211.9
2015-Feb-18 17:33N 52°22' E 002°47'1111.0
2015-Feb-18 16:31N 52°32' E 002°56'1010.2
2015-Feb-18 15:32N 52°41' E 003°03'  

Dump ship's entire track history